Espace membre
Imprimable
Waimes, 25/05/2017, BEL - Les Cimes de Waimes
Liste des rapports > 85km - Classement
Recherche: Page: [1] 2
635 Entrées
 
Les réclamations ne sont plus acceptées, les résultats sont considérés comme définitifs.
Catégorie
PosNrLicenceNomAgeIOCEquipeTempsTkmMoy.RangNomLocalité
Vos photos grâce à Sportograf1.159110002644242NISSEN Soren33DNKRACING TEAM STE3:26:282:26 24.701ma1DIEKIRCH
Vos photos grâce à Sportograf2.158510003926561MASSAER Joris35BELTEAM8S MOUNTINB3:27:392:27 24.562ma1
Vos photos grâce à Sportograf3.1586820519275398VANTORNOUT Klaas35BELMARLUX - NAPOLE3:34:142:32 23.813ma1
Vos photos grâce à Sportograf4.1507NED19761405PETERS Bas41NLDMIJNBAD/GIANT3:34:472:32 23.751ma2HEYTHUYSEN
Vos photos grâce à Sportograf5.338SMIMSNAMS Jef26BEL3:34:522:32 23.741eli
Vos photos grâce à Sportograf6.1427100 039 641 49MOMBAERTS Johan33FRABLANCS GILETS B3:36:502:34 23.524ma1ROMSÉE
Vos photos grâce à Sportograf7.1416BEL19910403VAN HEMELEN Philip26BELTEAM WILIER-FOR3:37:212:34 23.462eliTIELT
Vos photos grâce à Sportograf8.145210008061892COOLS Bram22BELRS BIKES RACING3:37:512:34 23.411u23PULLE
Vos photos grâce à Sportograf9.155310009984314JANSSENS Sven34BELTEAM WILIER-FOR3:38:502:35 23.315ma1BONHEIDEN
Vos photos grâce à Sportograf10.1251BEL770916VAN DEN BULKE Ken40BELTOPBIKE RACING 3:39:562:36 23.192ma2OPVELP
Vos photos grâce à Sportograf11.1356100 074 518 06BRUWIERE Nicolas29BELMTB TEAM LANGDO3:42:452:38 22.903eliBETEKOM
Vos photos grâce à Sportograf12.1534100 150 697 40HIMPE Cedric25BELTRUST MTB TEAM3:44:442:39 22.694eliWAREGEM
Vos photos grâce à Sportograf13.160339108VAN DER SANDE Rick19BELNODRUGS HEROES 3:45:542:40 22.582u23HAACHT
Vos photos grâce à Sportograf14.151710012823784HUYGEN Tijs23BELHEIST CYCLING T3:45:552:40 22.585eliMORKHOVEN
Vos photos grâce à Sportograf15.1411BEL19770218VAN LOON Tom40BELGRANFONDOTEAM.B3:48:072:42 22.363ma2GIERLE
Vos photos grâce à Sportograf16.1297BEL19800917JANSSENS Janssens37BELMOENSCYCLINGTEA3:48:122:42 22.356ma1WESTMEERBEEK
Vos photos grâce à Sportograf17.144010015070851WILLEMS Gunter38BELCYCLES GILKINET3:49:122:42 22.257ma1JAUCHE
Vos photos grâce à Sportograf18.148510007952970VEROFT Jelto23BELHEIST CYCLING T3:50:592:44 22.086eliBOOISCHOT
Vos photos grâce à Sportograf19.2314LIEVENS Erik38BEL3:51:062:44 22.078ma1GEEL
Vos photos grâce à Sportograf20.1306BEL19800210DESCHEEMAEKER Steven37BELBIKE4LIFE-BMC3:51:432:44 22.019ma1GELUVELD
Vos photos grâce à Sportograf21.138173209BROEKMANS Arne39BELRAF'S BIKE3:51:462:44 22.0110ma1HEUSDEN-ZOLDER
Vos photos grâce à Sportograf22.1590BEL19900714PIRLOT Antoine27BELBTWIN MTB RACIN3:52:042:44 21.987eliOCHAMPS
Vos photos grâce à Sportograf23.1529100 563 529 40WIJCKMANS Kristof40BEL3:52:462:45 21.914ma2WIEKEVORST
Vos photos grâce à Sportograf24.156910004457940VAN LOON Juul34NLDTHIJSHENDRIKS.N3:53:592:46 21.8011ma1CUIJK
Vos photos grâce à Sportograf25.161410005771985VAN BOXSTAEL Stijn31BELTEAM WILIER-FOR3:54:002:46 21.8012ma1ERPE-MERE
Vos photos grâce à Sportograf26.1420BEL19800530LUCA Wesley37BELTRUSTMTBTEAM3:55:482:47 21.6313ma1DIKSMUIDE
Vos photos grâce à Sportograf27.1313BEL19750210DECLERCQ Wouter42BELTRUST MTB TEAM 3:55:492:47 21.635ma2RUDDERVOORDE
Vos photos grâce à Sportograf28.1504BEL19780929PARYS Telly39BELVOERVALLEI VOSS3:56:202:47 21.5814ma1VOSSEM
Vos photos grâce à Sportograf29.139910015070245DERIDDER Kristof41BELTEAM8S MTB3:56:352:47 21.566ma2BELLINGEN
Vos photos grâce à Sportograf30.1484100233381933VAN DER SCHOOT Freddie47NLD3:56:432:48 21.557ma2GEMONDE
Vos photos grâce à Sportograf31.140310006661456IMMING Bram27NLDTEAM IMMINGBIKE3:56:452:48 21.548eliEGMOND-BINNEN
Vos photos grâce à Sportograf32.1524100 164 072 29GEUENS Joris29BELILLI-BIKES CYCL3:56:472:48 21.549eliLOMMEL
Vos photos grâce à Sportograf33.134448013MONFORT Jean-Marc50BELCOMITE REGIONAL3:57:332:48 21.471ma3MEMBACH
Vos photos grâce à Sportograf34.1336BEL19870206BAISIR Thomas30BELFCWB LUXEMBOURG3:57:552:48 21.4415ma1BERTRIX
Vos photos grâce à Sportograf35.138410879HOOGERVORST Coen32NLDF.M.C. THE WHOO3:58:012:49 21.4316ma1SCHIJNDEL
Vos photos grâce à Sportograf36.147110004479966WILLEMSENS Kris41BELMTB BIKE INN HE3:58:032:49 21.428ma2BOOISCHOT
Vos photos grâce à Sportograf37.153510009837396DELCOUR Pierre31BELBTWIN MTB RACIN3:58:042:49 21.4217ma1NEUFCHÂTEAU
Vos photos grâce à Sportograf38.1437BEL19710912DE CLERCK Erwin46BELKLEIN-BRABANT M3:58:092:49 21.429ma2OPPUURS
Vos photos grâce à Sportograf39.138610055980704MÖBIUS Jurgen40BELWEBECO-Q JOBS-A3:58:102:49 21.4110ma2GENK
Vos photos grâce à Sportograf40.151210005523627ROBERT Frederique28BELACROG-BALEN BC3:58:122:49 21.4110eliMOL
Vos photos grâce à Sportograf41.155810005711058MEYVIS Vincent28BELEC WALSHOUTEM3:58:192:49 21.4011eliZOERSEL
Vos photos grâce à Sportograf42.148010010170028ROSART Benjamin31BELBIKE4LIFE/BMC3:59:042:49 21.3318ma1FRASNES-LEZ-GOSSELIES
Vos photos grâce à Sportograf43.346BAKKEN Erwin38NLD3:59:502:50 21.2719ma1
Vos photos grâce à Sportograf44.153710023372940FICK Peter33NLDTWC MAASLANDSTE4:00:042:50 21.2520ma1MAASTRICHT
Vos photos grâce à Sportograf45.1404BEL19850519DECOUX Jonathan32BELTEAM SAN MAZUIN4:01:362:51 21.1121ma1BIESME
Vos photos grâce à Sportograf46.13644336VANDERTHOMMEN Axel25BELALTITUDE TRAINI4:01:402:51 21.1012eliWELKENRAEDT
Vos photos grâce à Sportograf47.129410984PAKVIS Martin34NLDWESTLAND WIL VO4:01:432:51 21.1022ma1MAASDIJK
Vos photos grâce à Sportograf48.1406BEL19810828WOUTERS Tim36BELKLEIN BRABANT M4:01:542:51 21.0823ma1BORNEM
Vos photos grâce à Sportograf49.457CODDENS Kris36BELTRITAINING PRO 4:02:482:52 21.0124ma1
Vos photos grâce à Sportograf50.145410053679073HOFF René39DEUSIG KOBLENZ MTB4:03:092:52 20.9825ma1MAINZ-KASTEL
Vos photos grâce à Sportograf51.156210002132667JUNKER Jérôme42LUXVU ESCH4:03:322:52 20.9411ma2SCHIFFLANGE
Vos photos grâce à Sportograf52.1473NED19900726VAN DER HEIJDEN Rob27NLDFMC THE WHOOPER4:03:332:52 20.9413eliDEN DUNGEN
Vos photos grâce à Sportograf53.1548BEL19850330SMEYERS Eli32BEL4:04:082:53 20.8926ma1GEEL
Vos photos grâce à Sportograf54.13851557169012RASMUS Emmanuel40FRAVELO CLUB VERNY4:05:112:54 20.8012ma2METZ
Vos photos grâce à Sportograf55.2401GOEMAN Kenny41BEL4:05:132:54 20.8013ma2OPOETEREN
Vos photos grâce à Sportograf56.137565138VERTONGEN Jo40BELMTB OVERIJSE4:05:242:54 20.7814ma2OVERIJSE
Vos photos grâce à Sportograf57.1410210442STIENNES Johan38BELMTBIKERS BCH4:05:422:54 20.7627ma1ESPLECHIN
Vos photos grâce à Sportograf58.146210007385118VAN DE VORST Bas25NLDLICHT VERZET4:06:252:54 20.7014eliGROESBEEK
Vos photos grâce à Sportograf59.1732KUPIG Andre38DEURADSPORT NAGEL4:06:422:55 20.6728ma1OBERHAUSEN
Vos photos grâce à Sportograf60.135510699BOUDEWIJNS Marcel44NLDTML DOMMELSTREE4:06:582:55 20.6515ma2GERWEN
Vos photos grâce à Sportograf61.156373920VAN ELVEN Brent24BELBIKE TEAM MEERH4:07:572:56 20.5715eliLAAKDAL
Vos photos grâce à Sportograf62.144110011585723VUJASIN Lionel28BELECW VELO4:08:002:56 20.5716eliSERAING
Vos photos grâce à Sportograf63.1853URKENS Davy37BELPOWERBIKERS4:08:002:56 20.5729ma1GIERLE
Vos photos grâce à Sportograf64.2273SMEYERS Hans36BELXOD CYCLING TEA4:08:092:56 20.5530ma1BALEN
Vos photos grâce à Sportograf65.146610051398765HAUTERAT Georges50BELENTENTE CYCLIST4:08:112:56 20.552ma3GRACE-BERLEUR
Vos photos grâce à Sportograf66.14081062127072VERHENNE Benjamin29FRATOUQUET ACC4:08:112:56 20.5517eliSAINT MARTIN LEZ TATINGHE
Vos photos grâce à Sportograf67.456SÉPULT Benoit40BELBLANMONT4:08:132:56 20.5516ma2OTTIGNIES
Vos photos grâce à Sportograf68.1412410419LOWIES Jérôme35BELCYCLING TEAM GI4:08:152:56 20.5431ma1AMAY
Vos photos grâce à Sportograf69.1469410561MINGUET Arnaud35BELENTENTE CYCLIST4:08:152:56 20.5432ma1JEHAY (AMAY)
Vos photos grâce à Sportograf70.352LEGROS Melvin32BELMJCRAZYBIKERS4:08:392:56 20.5133ma1
Vos photos grâce à Sportograf71.1605VAN DER HEYDEN Mark25NLDTHE WHOOPERS4:08:522:56 20.4918eli
Vos photos grâce à Sportograf72.2197CAILTEUX Benoit40BELBIKERS TEAM 214:09:272:57 20.4517ma2TONTELANGE
Vos photos grâce à Sportograf73.460MEERSSCHAERT Maarten30BELORIGINAL BIKERS4:09:332:57 20.4434ma1STEKENE
Vos photos grâce à Sportograf74.142310022747591VAN GORKUM Joost39NLDMTBARNHEM / MB 4:09:572:57 20.4035ma1GENDT
Vos photos grâce à Sportograf75.135310014694571SMETS Cedric42BEL3COACH - SPORTS4:10:182:57 20.3818ma2EDEGEM
Vos photos grâce à Sportograf76.148310006724205JANSSEN Jeroen33NLDNSWV MERCURIUS4:11:062:58 20.3136ma1NIJMEGEN
Vos photos grâce à Sportograf77.1491FRA19870305NPCRYCKEMBUSCH Anthony30FRACC BRIMEUX4:11:072:58 20.3137ma1MARESQUEL
Vos photos grâce à Sportograf78.2195MERGAN Rupert45BEL4:11:252:58 20.2919ma2BLANDEN
Vos photos grâce à Sportograf79.159310023070018VAN OORSCHOT Jan48NLDVANOORSCHOTAUTO4:11:442:58 20.2620ma2LIEMPDE
Vos photos grâce à Sportograf80.2027DEVOLDER Jonathan26BEL4:12:442:59 20.1819eliKORTRIJK
Vos photos grâce à Sportograf81.130810128WILLEMS Erik49NLD4:13:002:59 20.1621ma2BRUNSSUM
Vos photos grâce à Sportograf82.1531410610MARTIN Baptiste28BELCYCLING TEAM GI4:13:112:59 20.1420eliTILFF
Vos photos grâce à Sportograf83.149910010645328FINOULST Jan-Frederik25BEL4:13:513:00 20.0921eliSINT-PAUWELS
Vos photos grâce à Sportograf84.1543BEL19830415BEULENS David34BELECOPROJECT CT4:14:103:00 20.0738ma1MELDERT (ALOST)
Vos photos grâce à Sportograf85.2468LAENEN David37BEL4:14:133:00 20.0639ma1MECHELEN
Vos photos grâce à Sportograf86.155096071542DE VOS Dennis41NLDFINENZO CYCLING4:14:573:00 20.0122ma2RAAMSDONKSVEER
Vos photos grâce à Sportograf87.161610009336333BOKX Kelvin21NLDMIJNBODLIUGIANK4:15:043:01 20.003u23
Vos photos grâce à Sportograf88.141310023493380JAEG Jérémy23FRAASPTT MULHOUSE 4:15:073:01 19.9922eliKIRCHBERG
Vos photos grâce à Sportograf89.133710668DE BRUIJN Justin32NLDTEAM BRABANT 204:15:103:01 19.9940ma1ZALTBOMMEL
Vos photos grâce à Sportograf90.1448NED19811207TAS Patrick36NLDWESTLAND WIL VO4:15:373:01 19.9541ma1NAALDWIJK
Vos photos grâce à Sportograf91.1362100 150 706 49VAN DAELE Maarten36BELK.V.C. DEINZE V4:15:503:01 19.9442ma1RONSE
Vos photos grâce à Sportograf92.145610006776341HEYLEN Dries25BEL4 BIKES MTB TEA4:15:563:01 19.9323eliHULSHOUT
Vos photos grâce à Sportograf93.152110015069235BLOEMINGB Bas46NLDICYCLE-CUBE4:16:423:02 19.8723ma2WIJK BIJ DUURSTEDE
Vos photos grâce à Sportograf94.137619740509BROUNS Emmanuel43BELFRÈRE UNE TEAM4:16:453:02 19.8624ma2JUMET
Vos photos grâce à Sportograf95.2067VANDENRIJT Pascal52BELBANDB TEAM TRAN4:16:503:02 19.863ma3HERK-DE-STAD
Vos photos grâce à Sportograf96.1571410057DUBOIS Frederic43BEL4:16:563:02 19.8525ma2VOROUX GOREUX
Vos photos grâce à Sportograf97.160010062101909DE BOECK Bart46BEL4:17:233:02 19.8226ma2
Vos photos grâce à Sportograf98.1982KELCHTERMANS Rob28BEL4:17:263:02 19.8124eliPEER
Vos photos grâce à Sportograf99.158810053971083DENNE Raphael39BELTEAM KTM-S'BY B4:18:003:03 19.7743ma1
Vos photos grâce à Sportograf100.155610060831310WARNOTTE Jordan37BELSPA VTT4:18:133:03 19.7544ma1STAVELOT
Vos photos grâce à Sportograf101.2328NAESSENS Bruno30BEL4:18:213:03 19.7445ma1GENT
Vos photos grâce à Sportograf102.1604VAN LAMP Gieljan31BELDE HEURINGS4:18:303:03 19.7346ma1
Vos photos grâce à Sportograf103.147210054973419SMEULDERS Joey28NLD4:18:553:03 19.7025eliMIERLO
Vos photos grâce à Sportograf104.2019MOEYAERT Jonas25BEL4:19:313:04 19.6526eliVEURNE
Vos photos grâce à Sportograf105.1767CHARETTE Eric40BEL4:19:503:04 19.6327ma2SPA
Vos photos grâce à Sportograf106.128810011881672KONING Luc52NLD4:20:023:04 19.614ma3TN VUGHT
Vos photos grâce à Sportograf107.2358CREMER Sebastian27BEL4:20:343:04 19.5727eliST VITH
Vos photos grâce à Sportograf108.302HENDRIKX Emiel40NLDBAARS BIKERS4:20:563:05 19.5528ma2HILVARENBEEK
Vos photos grâce à Sportograf109.154510053206201BLEYS Tom42BELMOENS CYCLING T4:21:023:05 19.5429ma2SCHRIEK
Vos photos grâce à Sportograf110.390THIJS Dennis29BEL4:21:423:05 19.4928eli
Vos photos grâce à Sportograf111.2313BROUWERS Rene36NLDKRETSERS BEMELE4:21:453:05 19.4847ma1MARGRATEN
Vos photos grâce à Sportograf112.2327STARCK Frederic44BELBIKERS TEAM 214:21:463:05 19.4830ma2HOUDEMONT
Vos photos grâce à Sportograf113.1391410423PAQUET Francois31BELSDR BIKE4:22:023:05 19.4648ma1COURT ST ETIENNE
Vos photos grâce à Sportograf114.1737DE KORT Rob48NLDSPONSER BIKETEA4:22:073:06 19.4631ma2BERKEL-ENSCHOT
Vos photos grâce à Sportograf115.2453REICHLING Mario29DEU4:22:113:06 19.4529eliKIRCHHUNDEM
Vos photos grâce à Sportograf116.133965584DERVEAUX Niels20BELBEL199703174:22:303:06 19.434u23OTEGEM
Vos photos grâce à Sportograf117.1738SEBREGTS Bart47NLDSPONSER BIKE TE4:22:423:06 19.4132ma2BERKEL-ENSCHOT
Vos photos grâce à Sportograf118.160810011770326MOLENBERGHS Pieter26BELSTAGECO-SPECIAL4:22:493:06 19.4130eliVOSSELAAR
Vos photos grâce à Sportograf119.2229VOLDERS Margino40BEL4:23:113:06 19.3833ma2HAM
Vos photos grâce à Sportograf120.1991REKKO Gène32NLD4:23:193:06 19.3749ma1VALKENBURG AAN DE GEUL
Vos photos grâce à Sportograf121.1915DECHAMPS Jacky45BEL4:23:203:06 19.3734ma2JALHAY
Vos photos grâce à Sportograf122.135110023433463SCHOUTEN Richard48NLDRWV DE SPARTAAN4:23:523:07 19.3335ma2DEN HAAG
Vos photos grâce à Sportograf123.150210023366068GEILENKIRCHEN Bram33NLDTEAM TOMA CYCLE4:24:173:07 19.3050ma1SIMPELVELD
Vos photos grâce à Sportograf124.1791POORTMANS Luc48BELAPRESBIKERS4:24:563:08 19.2536ma2NOORDERWIJK
Vos photos grâce à Sportograf125.1971PITTOIS Stijn42BEL4:25:083:08 19.2437ma2SINT-KATELIJNE-WAVER
Vos photos grâce à Sportograf126.1933SOLHEID Olivier29BELPLAYBICKERS4:25:333:08 19.2131eliMALMEDY
Vos photos grâce à Sportograf127.1439BEL19960116PIP Jérémy21BELHIGH FENS MTB4:25:493:08 19.195u23MALMEDY
Vos photos grâce à Sportograf128.340RENSON Pierre37BEL4:25:553:08 19.1851ma1
Vos photos grâce à Sportograf129.2280VAN DRIESSCHE Bart29BEL4:26:143:08 19.1632eliBAARDEGEM
Vos photos grâce à Sportograf130.132873476DE GELISSEN Kenneth26BELTEAM BREULS4:26:563:09 19.1133eliMAASMECHELEN
Vos photos grâce à Sportograf131.2433VERHEYEN Seppe29BEL4:27:033:09 19.1034eliOKSELAAR
Vos photos grâce à Sportograf132.1303440217OLIVIER Scaillet39BELCLUB CYCLISTE B4:27:273:09 19.0752ma1MEMBACH
Vos photos grâce à Sportograf133.13721557165059FONCIN David44FRALBC FAMECK4:27:543:10 19.0438ma2GANDRANGE
Vos photos grâce à Sportograf134.152810013224316STANDAERT Sven43BELESPIRA CYCLING 4:28:253:10 19.0039ma2OVERMERE
Vos photos grâce à Sportograf135.1325BEL19750213STORMS Gert42BEL19754:28:393:10 18.9840ma2HEIST-OP-DEN-BERG
Vos photos grâce à Sportograf136.159510022986152VISSERS Patrick49NLDBIKERS MTB TEAM4:28:473:10 18.9841ma2
Vos photos grâce à Sportograf137.145310049941846WILLEMS Stefan45BELFUJI MEDESTANDE4:28:543:10 18.9742ma2OPGLABBEEK
Vos photos grâce à Sportograf138.2030GENTEN Frank44BELGLOUMS VTT4:28:573:10 18.9643ma2WAIMES
Vos photos grâce à Sportograf139.1808THOMASSEN Stefan40BEL4:29:133:11 18.9444ma2MAASMECHELEN
Vos photos grâce à Sportograf140.157410023417804VAN GELDER Erik37NLDJAN VAN ARCKEL4:29:153:11 18.9453ma1SCHELLUINEN
Vos photos grâce à Sportograf141.1317HAM 62710KALBERTODT Knut53DEURG UNI HAMBURG4:29:533:11 18.905ma3HAMBURG
Vos photos grâce à Sportograf142.138310023320703VERTELMAN Bram19NLDWEST-FRISIA4:29:553:11 18.906u23MIDWOUD
Vos photos grâce à Sportograf143.1340410285LEROY Jean-François33BELTEAM 123 VTT4:30:023:11 18.8954ma1WAREMME
Vos photos grâce à Sportograf144.132310004248378FTROESCH Daniele39FRATOMOTION RACING4:30:043:11 18.881damEPFIG
Vos photos grâce à Sportograf145.1575VAN LOON Ludie44NLDWTC MAAS EN WAA4:30:243:11 18.8645ma2GORINCHEM
Vos photos grâce à Sportograf146.1956ROOMS Sven38BEL4:30:293:11 18.8655ma1WAARSCHOOT
Vos photos grâce à Sportograf147.13291690303321897VAN DAMME Patriek48BELDURMESPURTERS4:30:473:12 18.8446ma2LOKEREN
Vos photos grâce à Sportograf148.2319LARDINOIS Robin35BEL4:30:553:12 18.8356ma1KOERSEL
Vos photos grâce à Sportograf149.2321LUCAS Christophe37BEL4:30:573:12 18.8257ma1GOUY
Vos photos grâce à Sportograf150.2302ABRAMS Bart55BELTEAM B AND B4:31:023:12 18.826ma3LUMMEN
Vos photos grâce à Sportograf151.1892WAUTIER Denis45BELYELLOW TEAM4:31:243:12 18.7947ma2CHAMPLON
Vos photos grâce à Sportograf152.441VAN DEN BEEMD Johan43NLDCYCLOTEAM4:31:243:12 18.7948ma2RUCPHEN
Vos photos grâce à Sportograf153.1610NED19890813DE REGT Robin28NLDCYCLOTEAM.NL4:31:243:12 18.7935eliETTEN-LEUR
Vos photos grâce à Sportograf154.1607BEL19720203GUTKIN Vincent45BELSECTION LIEGEOI4:31:283:12 18.7949ma2BATTICE
Vos photos grâce à Sportograf155.1852PASINETTI Thomas28BELBIKE4LIFE TEAM4:31:433:12 18.7736eliBORNIVAL
Vos photos grâce à Sportograf156.2153DOORNBUSCH Philco44NLD4:31:443:12 18.7750ma2LOON OP ZAND
Vos photos grâce à Sportograf157.157710064696177FRIGYES Wagy52NLDMTB CLUB DISCOV4:31:473:12 18.777ma3
Vos photos grâce à Sportograf158.1920SCHELFHOUT Michael37BELM-BIKES.BE4:31:553:12 18.7658ma1AS
Vos photos grâce à Sportograf159.1888DUBOIS Christophe36BELTOPBIKE4:32:073:13 18.7459ma1PIJPELHEIDE
Vos photos grâce à Sportograf160.2459DE LEERSNYDER Dominique46BELO2 BIKERS4:32:123:13 18.7451ma2ARDOOIE
Vos photos grâce à Sportograf161.446RIETDIJK Dennis49NLD4:32:333:13 18.7152ma2
Vos photos grâce à Sportograf162.324GÖRTZ Peter33DEUANJOLET?4:32:423:13 18.7060ma1KORSCHENBROICH
Vos photos grâce à Sportograf163.151510058954156PEETERS Wouter41BEL26INCH COLLECTI4:32:483:13 18.7053ma2ARDOOIE
Vos photos grâce à Sportograf164.343DEFAUW Peter37BEL26/29 INCH COLL4:32:483:13 18.7061ma1
Vos photos grâce à Sportograf165.1849WOUTERS Luc46BELMTBP4:33:083:13 18.6754ma2OLEN
Vos photos grâce à Sportograf166.2174VAN HOVE Peter43BELMTB P4:33:093:13 18.6755ma2NOORDERWIJK
Vos photos grâce à Sportograf167.1620VANHAUTE Raf42BELWTC VERBRUGGELI4:33:113:13 18.6756ma2WEERDE
Vos photos grâce à Sportograf168.1314BEL19720407FDEROO Mieke45BELTRUST MTB TEAM 4:33:233:13 18.662damRUDDERVOORDE
Vos photos grâce à Sportograf169.2004VANLERBERGHE Roel35BELFLATOUT4:33:543:14 18.6262ma1WUUSTWEZEL
Vos photos grâce à Sportograf170.2500VAN DEN HOUDT Geert41BELTOPBIKE RACING 4:34:063:14 18.6157ma2BAAL
Vos photos grâce à Sportograf171.158110014363554PAULS Geoffrey25BELALTITUDE TRAINI4:34:453:14 18.5637eliLIÈGE
Vos photos grâce à Sportograf172.154710054524690HAEPERS Filip41BELMOENS CYCLING T4:34:583:15 18.5558ma2WESTMEERBEEK
Vos photos grâce à Sportograf173.1455MASTERMADOU Eric43FRAVTT COMPIEGNOIS4:35:213:15 18.5259ma2BRESLES
Vos photos grâce à Sportograf174.160910022790536MONRIK Ren51NLD4:35:213:15 18.528ma3
Vos photos grâce à Sportograf175.2428VAN MOSSELVELDE Peter38BEL4:35:523:15 18.4963ma1OOSTROZEBEKE
Vos photos grâce à Sportograf176.1891MENNESON Guillaume30BELLES MARTYRS D'E4:36:113:15 18.4764ma1RECKANGE
Vos photos grâce à Sportograf177.1905CARLIER Vincent44BELFREEBIKETEAM4:36:523:16 18.4260ma2LAMBUSART
Vos photos grâce à Sportograf178.2432ROELOFS Jens38DEU4:36:523:16 18.4265ma1GOCH
Vos photos grâce à Sportograf179.143010004635873CHABOT Jean-François52FRAUCM VENEUX LES 4:37:073:16 18.409ma3CESSON
Vos photos grâce à Sportograf180.2276BENOY Maxim27BEL4:37:073:16 18.4038eliKONTICH
Vos photos grâce à Sportograf181.1401797838CHRISTOPHE Carpentier41FRAXTREM RIDER'S4:37:263:16 18.3861ma2WIMEREUX
Vos photos grâce à Sportograf182.2124DELMOTTE Ronny37BEL4:37:373:16 18.3766ma1HUY
Vos photos grâce à Sportograf183.160610060402284VIAENE Pascal42BEL26 INCH COLLECT4:38:103:17 18.3362ma2ZWEVEGEM
Vos photos grâce à Sportograf184.2194MEULDERS Filip40BEL4:38:213:17 18.3263ma2HERENTALS
Vos photos grâce à Sportograf185.1787PENNERS Alwin49NLD4:38:383:17 18.3064ma2SELFKANT
Vos photos grâce à Sportograf186.2220BAKKER Jarno40NLDBAKKER RACING T4:39:063:18 18.2765ma2LIESSEL
Vos photos grâce à Sportograf187.393BUFFET 33BEL4:39:123:18 18.2767ma1
Vos photos grâce à Sportograf188.2420WITTROCK Sascha46DEUHAPPY TRAIL SUR4:39:163:18 18.2666ma2GREVENBROICH
Vos photos grâce à Sportograf189.154910050540216SCHILLEBEECKX Wim48BELINDIVIDUEEL4:39:483:18 18.2367ma2BALEN
Vos photos grâce à Sportograf190.319VAN GINKEL Alex34NLD4:39:503:18 18.2368ma1
Vos photos grâce à Sportograf191.1964VAN HOOSTE Kristof34BELWAASLAND MTB TE4:40:053:18 18.2169ma1TEMSE
Vos photos grâce à Sportograf192.400HOEKS Tom34BEL4:40:063:18 18.2170ma1BALEN
Vos photos grâce à Sportograf193.2444VAN DE SCHANS Dirk38BELMTB-KATTENBOS4:40:083:18 18.2171ma1LOMMEL
Vos photos grâce à Sportograf194.2116BUELENS Johan48BEL4:40:393:19 18.1768ma2TESSENDERLO
Vos photos grâce à Sportograf195.464VAN BROECK Kristof40BEL4:41:173:19 18.1369ma2BAARDEGEM
Vos photos grâce à Sportograf196.138810022881270RIELE Hein50NLDNSWV MERCURIUS4:41:213:19 18.1310ma3NIJMEGEN
Vos photos grâce à Sportograf197.1433BEL19740116VERJANS Nicolas43BELECW4:41:503:19 18.1070ma2MOURCOURT
Vos photos grâce à Sportograf198.1842MOLENDIJK Marcel52NLD4:41:553:19 18.0911ma3BENNEKOM
Vos photos grâce à Sportograf199.161718 50507 35393DENUWELAERE Tom32BEL4:42:023:20 18.0872ma1TORHOUT
Vos photos grâce à Sportograf200.332ENGELS Thomas52DEUALDER HOCHNEAKI4:42:143:20 18.0712ma3
Vos photos grâce à Sportograf201.142210058802188LOPES Bruno24PRTTEAMBIKE4LIFE/B4:42:353:20 18.0539eliBRAINE L'ALLEUD
Vos photos grâce à Sportograf202.2367BOURET Benjamin36BEL4:43:243:21 18.0073ma1GHLIN
Vos photos grâce à Sportograf203.1463100 265 269 55TALON Patrice51FRALES BLAIREAUX D4:45:123:22 17.8813ma3VILLERS BOCAGE
Vos photos grâce à Sportograf204.492FHESSENS Saskia46BELMTB GENT RACING4:45:143:22 17.883dam
Vos photos grâce à Sportograf205.147810050655303MARCHAND Sebastien38FRAU V C C M4:45:203:22 17.8774ma1CHARLEVILLE
Vos photos grâce à Sportograf206.2362VAN HAUTEGHEM Bart39BELMETAL MILITIA4:45:313:22 17.8675ma1OUDENAARDE
Vos photos grâce à Sportograf207.320WOUTERS Patrick55BELFLOWTRACK4:45:383:22 17.8614ma3
Vos photos grâce à Sportograf208.2151KEUPPENS Geert53BELMOUNTAINFIGHTER4:45:533:22 17.8415ma3HEIST OP DEN BERG
Vos photos grâce à Sportograf209.130296069975LELIJVELD Marc22NLDDIRTY HILL ATB4:46:223:23 17.817u23HAASTRECHT
Vos photos grâce à Sportograf210.1746BOLLEN Jonas26BELTEAM BREULS4:46:433:23 17.7940eliMAASMECHELEN
Vos photos grâce à Sportograf211.1947BENJAMIN Geersheuvels50BELMOUNTAIN MANIAC4:47:113:23 17.7616ma3BOECHOUT
Vos photos grâce à Sportograf212.1801MICHIELSEN Andy29BELHERMANS CYCLING4:47:393:24 17.7341eliVLIMMEREN
Vos photos grâce à Sportograf213.2316DAVY Aerts35BELXOD CYCLING TEA4:48:053:24 17.7076ma1BALEN
Vos photos grâce à Sportograf214.1743TEFNIN Gauthier32BEL4:48:083:24 17.7077ma1JALHAY
Vos photos grâce à Sportograf215.13571770930331619SMETS Kevin40BELBRUULBIKERS4:48:103:24 17.7071ma2EKEREN
Vos photos grâce à Sportograf216.152010009357652FVAN PEER Sara31BELRAF'S BIKE TEAM4:48:113:24 17.704damGEEL
Vos photos grâce à Sportograf217.149510059230709VERSWIJVEL Eric53BELBIKE-INN TEAM H4:48:143:24 17.6917ma3VORSELAAR
Vos photos grâce à Sportograf218.2028VANLOFFELD Ronny42BEL4:48:353:24 17.6772ma2BILZEN
Vos photos grâce à Sportograf219.1913VAN ELDERE Pieter25BEL4UMBIKERS4:48:373:24 17.6742eliHASSELT
Vos photos grâce à Sportograf220.1768GUGGEMOS Tobias32DEU4:49:193:25 17.6378ma1AACHEN
Vos photos grâce à Sportograf221.1487BEL19790802WALLAERT Giovanni38BEL4:49:483:25 17.6079ma1KNESSELARE
Vos photos grâce à Sportograf222.2232EVRAERT Niels22BEL4:50:243:25 17.568u23GAVERE
Vos photos grâce à Sportograf223.2277DECRU Alexander42BEL4:51:053:26 17.5273ma2OOSTENDE
Vos photos grâce à Sportograf224.2108LEDANT Bruno38BEL4:51:083:26 17.5280ma1LIÈGE
Vos photos grâce à Sportograf225.1516100 141 582 43MAES Aiden20BELASFRA RACING TE4:51:213:26 17.519u23INGELMUNSTER
Vos photos grâce à Sportograf226.1783ALTING Kenneth41NLDSPONSER BIKE TE4:52:173:27 17.4574ma2OISTERWIJK
Vos photos grâce à Sportograf227.153310016463914ROTTIERS Cédric25BELINDIVIDUEEL4:52:253:27 17.4443eliZONNEGEM
Vos photos grâce à Sportograf228.2454MALCHUS Lutz44DEURSC KRÄHE KORNE4:52:333:27 17.4375ma2RAEREN
Vos photos grâce à Sportograf229.1850PETERS Thorsten40DEUVELOCLUB SELFKA4:53:113:27 17.4076ma2SELFKANT
Vos photos grâce à Sportograf230.1845WOUTERS Wil57NLD4:53:143:27 17.3918ma3LUYKSGESTEL
Vos photos grâce à Sportograf231.310TISCHLER Stefan48DEU4:53:193:28 17.3977ma2SIEGBURG
Vos photos grâce à Sportograf232.155296111866VAN DOREMAELE Rutger39NLDCYCLOTEAM.NL4:53:363:28 17.3781ma1KERKDRIEL
Vos photos grâce à Sportograf233.2425DETHIER Francis61BELGLOUMS VTT4:53:413:28 17.3719ma3WAIMES
Vos photos grâce à Sportograf234.2399SMETS Sven29BELMTB RACING TEAM4:54:033:28 17.3444eliBLANDEN
Vos photos grâce à Sportograf235.2450VERROTE Frederik45BEL4:54:083:28 17.3478ma2HUIZINGEN
Vos photos grâce à Sportograf236.14862008373711393CUSTERS Keith41BELRACING TEAM INS4:54:143:28 17.3379ma2HAASRODE
Vos photos grâce à Sportograf237.2299VOORBIJ Jeroen43NLDCYCLE SUPPORT4:54:493:29 17.3080ma2EINDHOVEN
Vos photos grâce à Sportograf238.2264AERTS Thomas32BELTANDJEN BY4:54:503:29 17.3082ma1GRUITRODE
Vos photos grâce à Sportograf239.2359HEINEN Patrick50BELRSV ST VITH4:54:573:29 17.2920ma3ST VITH
Vos photos grâce à Sportograf240.455GRAULUS Juan50BELMTBSPORTIF4:55:043:29 17.2821ma3
Vos photos grâce à Sportograf241.1886RENS Pedro39BELHET GEZIN VAN P4:55:263:29 17.2683ma1WESTERLO
Vos photos grâce à Sportograf242.2117DESMEDT Paul51BEL4:55:263:29 17.2622ma3TESSENDERO
Vos photos grâce à Sportograf243.2369VAN RAAK Anthony45NLD4:55:333:29 17.2681ma2TILBURG
Vos photos grâce à Sportograf244.2404VAN DER VELDEN Jan45BELTROMMELEN TWEEW4:55:453:29 17.2482ma2MEERLE
Vos photos grâce à Sportograf245.2041DE BRUYCKERE Jean-Luc54BELBEZEMBIKERS4:55:533:29 17.2423ma3MALDEGEM
Vos photos grâce à Sportograf246.2145VAN DER THOMMEN Daniel56BEL4:55:573:29 17.2324ma3WELKENRAEDT
Vos photos grâce à Sportograf247.2464KNIBBELER Joost40NLD4:55:583:29 17.2383ma2
Vos photos grâce à Sportograf248.2054VAN DER HEIDEN Arian37NLDBIEST BIKES4:56:063:30 17.2284ma1BIEST HOUTAKKER
Vos photos grâce à Sportograf249.2037VAN DAL Koen49NLDBAARS BIKERS4:56:063:30 17.2284ma2DIESSEN
Vos photos grâce à Sportograf250.2165OUDERMANS Thierri43BELTRIPLLE BIKERS4:56:473:30 17.1985ma2ZOERSEL
Vos photos grâce à Sportograf251.1714CREMER Johannes40BELRSV ST.VITH4:57:143:30 17.1686ma2AMEL
Vos photos grâce à Sportograf252.2345LEBAILLY Simon31BEL4:57:443:31 17.1385ma1BAUFFE
Vos photos grâce à Sportograf253.2347SOARES DA COSTA David27PRT4:57:453:31 17.1345eliTHIEUSIES
Vos photos grâce à Sportograf254.1761GOFFLO Maarten32BELTANDJEN BY4:57:453:31 17.1386ma1GRUITRODE
Vos photos grâce à Sportograf255.154010022752645KOCH Patrick45NLDBACKDRAFT MTB T4:58:413:31 17.0787ma2THOLEN
Vos photos grâce à Sportograf256.2110COENEGRACHTS Bart41BEL4:58:423:31 17.0788ma2HASSELT
Vos photos grâce à Sportograf257.2334LATEUR Emmanuel43BELJET7BIKERS4:58:453:31 17.0789ma2ESCANAFFLES
Vos photos grâce à Sportograf258.337VAN DEN BERG Arno40NLDTREK4:59:223:32 17.0490ma2ZEELAND
Vos photos grâce à Sportograf259.2159DENOULET Stijn43BEL4:59:343:32 17.0391ma2HARELBEKE
Vos photos grâce à Sportograf260.462PUTTEMANS Didier45BELVOERVALLEI VOSS4:59:353:32 17.0292ma2
Vos photos grâce à Sportograf261.1936DULIEU Loic27BELBC LA RULLES4:59:473:32 17.0146eliRACHECOURT
Vos photos grâce à Sportograf262.137310023204707GELEYNSE Ronald51NLDRWV DE SPARTAAN4:59:523:32 17.0125ma3DEN HAAG
Vos photos grâce à Sportograf263.2469VANGOIDSENHOVEN Steven35BELTOPBIKE RACING 5:00:023:32 17.0087ma1RAMSEL
Vos photos grâce à Sportograf264.2352GEERT Boeckx52BEL5:00:503:33 16.9526ma3GEEL
Vos photos grâce à Sportograf265.1773OLIVIER Lelong46BELLES AIGLONS5:00:523:33 16.9593ma2MAFFLE
Vos photos grâce à Sportograf266.131510048483109VANDERSTOCKEN Christophe31BELACTION BIKE5:00:533:33 16.9588ma1HELLEBECQ
Vos photos grâce à Sportograf267.2460ALLARY Jurgen46BEL5:00:573:33 16.9594ma2DUDZELE
Vos photos grâce à Sportograf268.2412VAN ROY Klaas39BEL5:01:153:33 16.9389ma1MEISE
Vos photos grâce à Sportograf269.2411WALLYN Bert37BELTRAPTISTEN5:01:183:33 16.9390ma1GRIMBERGEN
Vos photos grâce à Sportograf270.128255599905MORVILLÉ Jérôme36FRATEAM S-BIKE AMI5:01:193:33 16.9391ma1CREUSE
Vos photos grâce à Sportograf271.2315DETHIER Freddy67BEL5:01:223:33 16.9227ma3WAIMES
Vos photos grâce à Sportograf272.2090FVEREECKE Sarah41BELMTB LADIES5:01:303:33 16.925damWESTERLO
Vos photos grâce à Sportograf273.1899LUGT Paul40NLD5:01:433:33 16.9095ma2NAALDWIJK
Vos photos grâce à Sportograf274.1898HOOGERVORST Mark40NLD5:01:443:33 16.9096ma2DE LIER
Vos photos grâce à Sportograf275.128355599911WILS Freddy43FRATEAM S-BIKE AMI5:02:073:34 16.8897ma2HARPONVILLE
Vos photos grâce à Sportograf276.2462BRAN Stéphane41BEL5:02:323:34 16.8698ma2BIERGES
Vos photos grâce à Sportograf277.2344RAEMAEKERS Thomas33BEL5:02:443:34 16.8592ma1OUD-HEVERLEE
Vos photos grâce à Sportograf278.1818WATS Frédéric49BELMOYEUX LURONS5:02:543:34 16.8499ma2TATTERT
Vos photos grâce à Sportograf279.2233CHUDZIK Serge50BELCCE5:03:063:34 16.8328ma3LA LOUVIERE
Vos photos grâce à Sportograf280.2235ROMBAUX Jeremy34BELESTINNES BIKERS5:03:063:34 16.8393ma1BINCHE
Vos photos grâce à Sportograf281.1756LAMMENS Steven33BEL5:03:223:35 16.8194ma1OORDEGEM
Vos photos grâce à Sportograf282.454GIRALDO Steve39BELWACKY RACERS5:03:233:35 16.8195ma1ICHTEGEM
Vos photos grâce à Sportograf283.2237MORAY Pierre-Jean48BELDÉCORAMA5:03:293:35 16.81100ma2STAVELOT
Vos photos grâce à Sportograf284.2298KOLEN Dolf37NLD5:03:443:35 16.7996ma1BERGEIJK
Vos photos grâce à Sportograf285.1967BERND Böder50DEU5:03:523:35 16.7829ma3DUISBURG
Vos photos grâce à Sportograf286.147910050543852NYS Kris38BELWIELERVRIENDEN 5:03:553:35 16.7897ma1BETEKOM
Vos photos grâce à Sportograf287.1724VAN DER LINDE Fook37NLDRMC WILDBOYS5:04:103:35 16.7798ma1OOSTERBEEK
Vos photos grâce à Sportograf288.2357DEMAREZ Frederik35BEL5:04:463:36 16.7399ma1HULSTE
Vos photos grâce à Sportograf289.1969SIMON Steve41BELTEAM NACHSEM5:04:523:36 16.73101ma2MALMEDY
Vos photos grâce à Sportograf290.1907VAN DE VELDE Hans42BELBRUULBIKERS5:04:543:36 16.73102ma2WIJNEGEM
Vos photos grâce à Sportograf291.2001SPANO Roberto33BEL5:04:543:36 16.73100ma1ZONHOVEN
Vos photos grâce à Sportograf292.142810026876054RINCENT Jean Hilippe53FRAUCM VENEUX LES 5:05:003:36 16.7230ma3MOISSY CRAMAYEL
Vos photos grâce à Sportograf293.2002DEGUISNE Valentin25FRA5:05:183:36 16.7147eliOUTREAU
Vos photos grâce à Sportograf294.2283JOHAN Vergaert48BEL5:05:193:36 16.70103ma2MERELBEKE
Vos photos grâce à Sportograf295.357MEIJER Olaf46NLDJEAN HABETS CYC5:05:363:36 16.69104ma2AP VALKENBURG AAN DE GEUL
Vos photos grâce à Sportograf296.2169SCAFS Maxence34BEL5:05:553:36 16.67101ma1LIÈGE
Vos photos grâce à Sportograf297.143610055081533CORVILAIN Olivier45BELAMB THEUX5:06:103:37 16.66105ma2LA REID
Vos photos grâce à Sportograf298.1883DIVITA Frederic37BEL5:06:333:37 16.64102ma1ANDRIMONT
Vos photos grâce à Sportograf299.377HAZELEYER Gerdo36NLDMBL MIDDEIN NED5:06:373:37 16.63103ma1
Vos photos grâce à Sportograf300.378HOOGLAND Nico46NLD5:06:383:37 16.63106ma2RHENEN
Vos photos grâce à Sportograf301.478THEYS Peter46BEL5:07:183:37 16.60107ma2
Vos photos grâce à Sportograf302.2129BILLEN Kwinten33BEL5:07:203:37 16.60104ma1ZONHOVEN
Vos photos grâce à Sportograf303.1712SONNET Horst54BEL5:07:203:37 16.5931ma3BUTGENBACH
Vos photos grâce à Sportograf304.2053NACHSEM Daniel45BELTEAM NACHSEM5:07:343:38 16.58108ma2MALMEDY
Vos photos grâce à Sportograf305.2408DELBALSO Fide44BEL5:07:573:38 16.56109ma2BRAINE LE CHATEAU
Vos photos grâce à Sportograf306.321CHAMBON Robert46NLD5:08:003:38 16.56110ma2
Vos photos grâce à Sportograf307.2265MARIËN Lowie63BEL5:08:093:38 16.5532ma3MOL
Vos photos grâce à Sportograf308.2405LOOSE Kurt44BELWTC DE PUTTERS5:08:253:38 16.54111ma2TORHOUT
Vos photos grâce à Sportograf309.1750PONCELET Ascagne38BEL5:08:323:38 16.53105ma1HASSELT
Vos photos grâce à Sportograf310.1792PLANCKAERT Edwin43BELKRIERECROSSERS5:08:443:38 16.52112ma2OTEGEM
Vos photos grâce à Sportograf311.2223VANEECKHOUT Kristof31BELDDW5:09:013:39 16.50106ma1BEVEREN LEIE
Vos photos grâce à Sportograf312.392LEFRANK 29BEL5:09:253:39 16.4848eli
Vos photos grâce à Sportograf313.1481100 355 623 05THIJS Carl58BELINDIVIDUEEL5:09:353:39 16.4733ma3BRASSCHAAT
Vos photos grâce à Sportograf314.2238KRAL Eric40BEL5:09:413:39 16.47113ma2WATERLOO
Vos photos grâce à Sportograf315.2339HALLEUX Christophe39BELBIKING LA RULLE5:09:433:39 16.47107ma1ORSINFAING
Vos photos grâce à Sportograf316.1335DEFRAITEUR Romain20BEL5:09:443:39 16.4710u23DISON
Vos photos grâce à Sportograf317.402DAMEN Stef31BEL5:09:473:39 16.46108ma1
Vos photos grâce à Sportograf318.1908DETREMBLEUR Vincent49BELTEAM NACHSEM5:10:073:39 16.45114ma2FRANCORCHAMPS
Vos photos grâce à Sportograf319.1859STROINSKI Sven43BELSLECHTE VRIENDE5:10:293:40 16.43115ma2MERKSEM
Vos photos grâce à Sportograf320.1906HASSETT Gavin41BEL5:10:383:40 16.42116ma2GHENT
Vos photos grâce à Sportograf321.2087VERTOGEN Patrick49NLD5:10:573:40 16.40117ma2SUSTEREN
Vos photos grâce à Sportograf322.345SANTEGOEDS Gaby43NLD5:11:013:40 16.40118ma2
Vos photos grâce à Sportograf323.304CARLIER Stefan40NLDBAARS BIKERS5:11:073:40 16.39119ma2ROTTERDAM
Vos photos grâce à Sportograf324.2490NIEWHUIS Pieter50NLDTEAM ABBAS5:12:123:41 16.3434ma3
Vos photos grâce à Sportograf325.363CARTEL Oskar46NLDDE PEDALEUR5:12:173:41 16.33120ma2
Vos photos grâce à Sportograf326.359DERLESEN Bart36NLD5:12:173:41 16.33109ma1
Vos photos grâce à Sportograf327.153909.10.1975RAUW Patrick42BELTEAM RMC5:12:203:41 16.33121ma2BÜTGENBACH
Vos photos grâce à Sportograf328.434DE SMET Jan47BEL5:12:323:41 16.32122ma2
Vos photos grâce à Sportograf329.2379KONZE Michael46DEURAD TREFF BORCH5:12:343:41 16.32123ma2BÜREN
Vos photos grâce à Sportograf330.1709HAESEN Bart44BELDEPOLIM5:13:193:42 16.28124ma2HAM
Vos photos grâce à Sportograf331.2366VAN DEN BROEK Frank45NLD5:13:313:42 16.27125ma2ASTEN
Vos photos grâce à Sportograf332.1957FROONINCKX Johan48BELMTB RACINGTEAM5:13:373:42 16.26126ma2LEUVEN
Vos photos grâce à Sportograf333.1999TAVERNIERS Vincent38BELBRUULBIKERS5:13:553:42 16.25110ma1SCHOTEN
Vos photos grâce à Sportograf334.342KESSLER Francis45BEL5:14:033:42 16.24127ma2
Vos photos grâce à Sportograf335.341VELZEBOER Alex36BEL5:14:043:42 16.24111ma1
Vos photos grâce à Sportograf336.2272HAIDON Jerome40BEL5:14:353:43 16.21128ma2TIHANGE
Vos photos grâce à Sportograf337.1914VAN OSCH Cris41NLD5:14:393:43 16.21129ma2EINDHOVEN
Vos photos grâce à Sportograf338.138796068677VAN DEN HELM Marco40NLDMC CLUB OSS5:15:203:43 16.17130ma2OSS
Vos photos grâce à Sportograf339.2431DE GRAAUW Jorgen41NLD5:15:323:43 16.16131ma2KERKDRIEL
Vos photos grâce à Sportograf340.2269TILLEMANS Philippe53BEL5:15:333:43 16.1635ma3HAID-HAVERSIN
Vos photos grâce à Sportograf341.1860BRECHT Nuitten36BEL5:15:363:43 16.16112ma1OTEGEM
Vos photos grâce à Sportograf342.2008HENEAU Franck45FRAÉCUREUILS VTT5:16:103:44 16.13132ma2QUESTRECQUES
Vos photos grâce à Sportograf343.2071JANNES Bart50NLD5:16:113:44 16.1336ma3HELMOND
Vos photos grâce à Sportograf344.2343DRIESEN Sven31BEL5:16:403:44 16.11113ma1BRECHT
Vos photos grâce à Sportograf345.440GISBERS Roger48NLD5:16:483:44 16.10133ma2AK GENNEP
Vos photos grâce à Sportograf346.2274BEURSKENS William33NLD5:17:373:45 16.06114ma1PANNINGEN
Vos photos grâce à Sportograf347.46510022968368NIELEN Peter47NLDMTB BAARLO5:17:373:45 16.06134ma2SM SEVENUM
Vos photos grâce à Sportograf348.153610023034450LAMBER Frank33NLDMTB BAARLO5:17:393:45 16.06115ma1VENLO
Vos photos grâce à Sportograf349.2465SOLHEID Damien30BELPLAYBIKERS5:17:513:45 16.05116ma1MALMEDY
Vos photos grâce à Sportograf350.1619DECADT Bart40BELWTC VERBRUGGELI5:17:593:45 16.04135ma2EPPEGEM
Vos photos grâce à Sportograf351.2242TEUNKENS Tom39BEL5:18:243:45 16.02117ma1MOL
Vos photos grâce à Sportograf352.2119STASSE François41BEL5:18:433:45 16.00136ma2WANZE
Vos photos grâce à Sportograf353.2045DAVE Patrick45BEL5:18:433:45 16.00137ma2WANZE
Vos photos grâce à Sportograf354.2281IZZI Sebastien40BEL5:19:113:46 15.98138ma2AMPSIN
Vos photos grâce à Sportograf355.447WILLENSEN Richard51NLD5:20:003:46 15.9437ma3
Vos photos grâce à Sportograf356.1846THERY Stephane48BELBCH5:20:013:46 15.94139ma2ESPLECHIN
Vos photos grâce à Sportograf357.152610025007287PERRET Dominique68FRAVTT FUN CLUB5:20:013:46 15.9438ma3VILLERS LES NANCY
Vos photos grâce à Sportograf358.303REISRINK Frank40NLDBAARS BIKERS5:20:093:46 15.93140ma2
Vos photos grâce à Sportograf359.1318NRW603270STENZEL Michael46DEURSV WERL-WICKED5:20:483:47 15.90141ma2HEMER
Vos photos grâce à Sportograf360.2452ALSTEENS Bernard42BEL5:21:113:47 15.88142ma2LOUVAIN-LA-NEUVE
Vos photos grâce à Sportograf361.132620075330GOFFA Dave38BEL5:21:453:48 15.85118ma1WESTMALLE
Vos photos grâce à Sportograf362.2311KOX Hans40NLDTWC DE CONTENTE5:22:013:48 15.84143ma2EERSEL
Vos photos grâce à Sportograf363.131000414181249VERRAES Tom47BELKRIERECROSSERS5:22:333:48 15.81144ma2HEESTERT
Vos photos grâce à Sportograf364.2492FEYS Steven41BEL5:22:473:48 15.80145ma2BELLEGEM
Vos photos grâce à Sportograf365.396VAN CUTSEM François31BEL5:22:523:48 15.80119ma1ROTHEUX
Vos photos grâce à Sportograf366.1810PLATTEEUW Steven44BELDE PELGRIM5:23:083:49 15.78146ma2ANTWERPEN
Vos photos grâce à Sportograf367.2105DE WIT Mathijs37NLD5:23:233:49 15.77120ma1DRUNEN
Vos photos grâce à Sportograf368.2109KOKS Maarten40NLD5:23:243:49 15.77147ma2DRUNEN
Vos photos grâce à Sportograf369.142110012082645VAN DEN BOGAARD Eric Van37NLD19805:23:263:49 15.77121ma15
Vos photos grâce à Sportograf370.1784COSTA Gianni46ITA19715:23:303:49 15.77148ma2GREVENBROICH
Vos photos grâce à Sportograf371.368KRUSE Marco43DEU5:23:323:49 15.76149ma2
Vos photos grâce à Sportograf372.2040PEERDEMAN Marcel57NLD5:23:373:49 15.7639ma3OPMEER
Vos photos grâce à Sportograf373.1522BEL 19721215BAUSSART Jean-Francois45BELMJ THUDITEAM5:23:493:49 15.75150ma2BIERCÉE
Vos photos grâce à Sportograf374.2290DHOOGHE Thibault29BEL5:23:553:49 15.7549eliSINT-AMANDSBERG
Vos photos grâce à Sportograf375.136820092148LEPERCQ Andy44BELFUJI MTB TEAM5:24:003:49 15.74151ma2KUURNE
Vos photos grâce à Sportograf376.1817CATTEAU Tommy39BELDE VELDPLOETERS5:24:133:49 15.73122ma1LOCHRISTI
Vos photos grâce à Sportograf377.350SCHMIT Stéphane44BELPROMOVÉLO ARLON5:24:373:50 15.71152ma2ARLON
Vos photos grâce à Sportograf378.369RIXEN Paul54BEL5:25:063:50 15.6940ma3
Vos photos grâce à Sportograf379.318BERND Christoph43DEUÖCHER BÖSCH RAC5:25:223:50 15.68153ma2
Vos photos grâce à Sportograf380.313VROMMAN Hannes35BEL5:25:243:50 15.67123ma1HEULE
Vos photos grâce à Sportograf381.137917 70514 045239DESIMPELAERE Bert40BELFUERZA MTB TEAM5:26:183:51 15.63154ma2WEVELGEM
Vos photos grâce à Sportograf382.146510036112272VAN AELBROECK Luc55BELWMTB5:26:543:51 15.6041ma3ADEGEM
Vos photos grâce à Sportograf383.1902HOUOT Martial58FRA5:27:093:51 15.5942ma3THIONVILLE
Vos photos grâce à Sportograf384.2073TORFS Ward46BEL5:27:193:52 15.58155ma2WESTERLO
Vos photos grâce à Sportograf385.1995BRAUN Rainer51BEL19665:27:433:52 15.5643ma3AMEL
Vos photos grâce à Sportograf386.1998MARAITE Reinhold51BEL5:27:453:52 15.5644ma3AMEL
Vos photos grâce à Sportograf387.2478MOREELS Sven44BELDE HERDERS5:28:133:52 15.54156ma2OUDENAARDE
Vos photos grâce à Sportograf388.2025VAN DER STARRE Leon43NLD5:28:223:52 15.53157ma2REEUWIJK
Vos photos grâce à Sportograf389.2487MORTEHAN Julien31BEL5:28:353:52 15.52124ma1HAMOIR
Vos photos grâce à Sportograf390.2376VERLINDE Bart36BEL5:28:423:53 15.52125ma1IZEGEM
Vos photos grâce à Sportograf391.2039LEPINOIS Nicolas30BELLA RUSTINE BAST5:28:523:53 15.51126ma1BASTOGNE
Vos photos grâce à Sportograf392.14001TOUCHEQUE Gregory35BELBASTOGNE VTT5:28:583:53 15.50127ma1PERLE
Vos photos grâce à Sportograf393.2354STEINER Célian21FRA5:29:123:53 15.4911u23LE SYNDICAT
Vos photos grâce à Sportograf394.2289WECKX Werner42BEL5:29:133:53 15.49158ma2DIEST
Vos photos grâce à Sportograf395.2175VANDEREYKEN Koen40BELTEAM 0135:29:133:53 15.49159ma2SCHAFFEN
Vos photos grâce à Sportograf396.364DIK Frank35NLD5:30:293:54 15.43128ma1
Vos photos grâce à Sportograf397.1804NUYTS Peter39BEL5:30:443:54 15.42129ma1PULDERBOS
Vos photos grâce à Sportograf398.2323BUELENS Johan59BELTOPBIKE5:30:483:54 15.4245ma3ROTSELAAR
Vos photos grâce à Sportograf399.419VAN GENNIP Sander30NLDTIONA5:31:053:54 15.40130ma1
Vos photos grâce à Sportograf400.128455599903FOSSÉ Jérôme50FRATEAM S-BIKE AMI5:31:073:54 15.4046ma3GRATIBUS
Vos photos grâce à Sportograf401.1937ALLAR Dirk46DEUCRANKS N' CHAIN5:31:183:54 15.39160ma2TRIERWEILER
Vos photos grâce à Sportograf402.1950SAUSEN Sascha47DEUCRANKS N´CHAINS5:31:473:55 15.37161ma2TRIER
Vos photos grâce à Sportograf403.386DIERICKX John55BELGRANFONDO. BE5:32:003:55 15.3647ma3ZONHOVEN
Vos photos grâce à Sportograf404.2173THANS Gert-Jan28BEL5:32:173:55 15.3550eliMAASEIK
Vos photos grâce à Sportograf405.2322VANDEN ECKER Breght31BELTANDJEN BY MTHR5:32:183:55 15.35131ma1BREE
Vos photos grâce à Sportograf406.1749DELAITTE Benoit43BEL5:32:273:55 15.34162ma2SPRIMONT
Vos photos grâce à Sportograf407.1873LAUWERS Ludo58BEL5:32:403:55 15.3348ma3TURNHOUT
Vos photos grâce à Sportograf408.480GOOSSENS Sander35BEL5:32:463:55 15.33132ma1
Vos photos grâce à Sportograf409.477VANDENBERGH Christophe455:32:473:55 15.33163ma2
Vos photos grâce à Sportograf410.1508100 601 935 34FBADON Marie Helene40BELESNEUX TEAM5:32:533:55 15.326damOUGRÉE
Vos photos grâce à Sportograf411.2020HOEKSTRA Wouter43NLD19745:32:593:56 15.32164ma2REEUWIJK
Vos photos grâce à Sportograf412.2296FACCENDA Fabrice43BELVTT FAF5:33:013:56 15.31165ma2EMBOURG
Vos photos grâce à Sportograf413.2250BEYENS Jan47BELMTB BOSKLIEVERS5:33:413:56 15.28166ma2OLEN
Vos photos grâce à Sportograf414.1831CREMER Michel46BEL5:33:433:56 15.28167ma2RAEREN
Vos photos grâce à Sportograf415.406GHYSELS Laurent40BELTOUT SEUL !5:33:543:56 15.27168ma2SINT GENESIUS RODE
Vos photos grâce à Sportograf416.475POTEZ Olivier38BELBIKERS ALLEUD5:34:373:57 15.24133ma1
Vos photos grâce à Sportograf417.2200DEGEYTER Dimitri36BEL5:34:383:57 15.24134ma1SENEFFE
Vos photos grâce à Sportograf418.2374RENARD Raphael41BELVC FRAITURE5:34:413:57 15.24169ma2SPRIMONT
Vos photos grâce à Sportograf419.382GARROY Raphael40BEL5:34:423:57 15.24170ma2
Vos photos grâce à Sportograf420.380FRANÇOIS Jean-Michel47BEL5:34:433:57 15.24171ma2VILLERS-LE-TEMPLE
Vos photos grâce à Sportograf421.2251WIJNEN Frankwin48NLD5:34:563:57 15.23172ma2LIESSELLIESSEL
Vos photos grâce à Sportograf422.2047CRIEL Tim30BEL5:34:593:57 15.23135ma1GENT
Vos photos grâce à Sportograf423.2217FRONIK Bram29NLDMTB GENT5:34:593:57 15.2251eliSINT-AMANDSBERGS
Vos photos grâce à Sportograf424.399288136ALBLAS Raoul44NLDROULEURS ULVENH5:35:183:57 15.21173ma2EA ULVENHOUT
Vos photos grâce à Sportograf425.398GEERT Van Vucht55NLD5:35:193:57 15.2149ma3ULVENHOUT
Vos photos grâce à Sportograf426.482DE SWAEF Tom33BEL5:35:393:57 15.19136ma1ZWALM
Vos photos grâce à Sportograf427.367GARIN Maurice52BEL5:36:033:58 15.1850ma3LIÈGE
Vos photos grâce à Sportograf428.2418JANSEN Edward28BEL5:36:323:58 15.1552eliLEUVEN
Vos photos grâce à Sportograf429.2406BROKKEN Peter43BELTROMMELEN TWEEW5:36:393:58 15.15174ma2WUUSTWEZEL
Vos photos grâce à Sportograf430.316KWERREVELD Dave44NLDALTISSIMO BIKES5:36:523:58 15.14175ma2WINTERSWIJK
Vos photos grâce à Sportograf431.500JOURET Renaud30BEL5:37:463:59 15.10137ma1BRAINE-L'ALLEUD
Vos photos grâce à Sportograf432.2330IMSCHOOT Michiel21BELDE HERDERS5:38:093:59 15.0812u23ZAFFELARE
Vos photos grâce à Sportograf433.2131PAUWELS Julien33BEL5:38:113:59 15.08138ma1PETIT RECHAIN
Vos photos grâce à Sportograf434.1865LENAERTS Koen47BELMTB FORZA5:38:183:59 15.08176ma2LILLE
Vos photos grâce à Sportograf435.2270GILIS Kristof41BELMTB TEAM NO EXC5:38:203:59 15.07177ma2ZOERSEL
Vos photos grâce à Sportograf436.1844LAZZARI Emmanuel51ITAMOYEUX LURONS5:38:353:59 15.0651ma3HABAY
Vos photos grâce à Sportograf437.1769MAHOUDEAUX Sebastien44FRAMOYEUX LURONS A5:38:424:00 15.06178ma2ARLON
Vos photos grâce à Sportograf438.1820DEVRESSE Marc56BEL5:38:454:00 15.0652ma3LUXEMBOURG
Vos photos grâce à Sportograf439.1822MERGEAI Christian53BELPROMOVÉLO LORRA5:38:474:00 15.0553ma3ARLON
Vos photos grâce à Sportograf440.1826CLAUSSE Pierre45BELMOYEUX LURONS5:38:484:00 15.05179ma2ARLON
Vos photos grâce à Sportograf441.2475STORME Nico47BEL5:38:584:00 15.05180ma2GENT
Vos photos grâce à Sportograf442.1739MAES Kris41BEL5:39:464:00 15.01181ma2MARIAKERKE
Vos photos grâce à Sportograf443.1904SCHOONBROODT Tony34BEL5:40:124:01 14.99139ma1PETIT RECHAIN
Vos photos grâce à Sportograf444.1903HOFERLIN Christophe36BEL5:40:164:01 14.99140ma1WEGNEZ
Vos photos grâce à Sportograf445.493DE BAETS Johan40BELSMART CYCLING T5:41:024:01 14.96182ma2
Vos photos grâce à Sportograf446.1796TIESEN Edwin45NLD5:41:034:01 14.95183ma2BROEKHUIZENVORST
Vos photos grâce à Sportograf447.2426WATERSCHOOT Raoul62BEL5:41:344:02 14.9354ma3ST NIKLAAS
Vos photos grâce à Sportograf448.2382TOL, VAN Tony53NLD5:41:414:02 14.9355ma3HELMOND
Vos photos grâce à Sportograf449.443KJELD KuijtenNLD5:41:434:02 14.921xxx
Vos photos grâce à Sportograf450.2286RASKIN Alain51BELAMB THEUX5:41:474:02 14.9256ma3SOUMAGNE
Vos photos grâce à Sportograf451.132421102244DELAERE Nico40BEL5:42:304:02 14.89184ma2BRUGGE
Vos photos grâce à Sportograf452.394MARIEN Christof40BEL5:42:574:03 14.87185ma2
Vos photos grâce à Sportograf453.391EECKHOUT Pieter47BEL5:42:594:03 14.87186ma2
Vos photos grâce à Sportograf454.1894LEMARCHAL Vincent38BEL5:43:044:03 14.87141ma1PEPINSTER
Vos photos grâce à Sportograf455.2260BRACKE Tim40BEL5:43:264:03 14.85187ma2GENTBRUGGE
Vos photos grâce à Sportograf456.2259WYNANTS Martin47BEL5:43:274:03 14.85188ma2STOUMONT
Vos photos grâce à Sportograf457.328POLACHOWSKI Stephan57DEU5:43:404:03 14.8457ma3JÜLICH
Vos photos grâce à Sportograf458.2491VAN CAMPENHOUT Jeroen28BEL5:44:194:04 14.8153eliMECHELEN
Vos photos grâce à Sportograf459.1841VERCAMMEN Arnaud42BELBO BIKERS5:44:464:04 14.79189ma2BRAINE LE COMTE
Vos photos grâce à Sportograf460.1836VERSTAPPEN Jean-Philippe42BELBO BIKERS5:44:474:04 14.79190ma2BUIZINGEN
Vos photos grâce à Sportograf461.1618DE MAN Jonas35BELWMTB5:45:044:04 14.78142ma1BORNEM
Vos photos grâce à Sportograf462.1795VANGOIDSENHOVEN Roger64BELTOPBIKE BEGIJNE5:45:094:04 14.7858ma3ROTSELAAR
Vos photos grâce à Sportograf463.15131750809293019CROONENBERGHS Jo42BELSHORTMTBIKERS5:45:264:04 14.76191ma2EVERBERG
Vos photos grâce à Sportograf464.381GOOSSENS Kenneth28BEL5:45:264:04 14.7654eliLOKEREN
Vos photos grâce à Sportograf465.2336DE MOL Yves39BEL5:45:274:04 14.76143ma1MARIAKERKE
Vos photos grâce à Sportograf466.2488APRILE Denis42BEL5:45:474:05 14.75192ma2
Vos photos grâce à Sportograf467.2309DE RUYCK Arsene25BEL5:45:524:05 14.7555eliEVERBERG
Vos photos grâce à Sportograf468.2457DE BRUYNE Jelle36BEL5:46:154:05 14.73144ma1ZWIJNDRECHT
Vos photos grâce à Sportograf469.2427WATERSCHOOT David44BEL5:46:264:05 14.72193ma2TIELRODE
Vos photos grâce à Sportograf470.2126MOUTTEAU Philippe48BELBIKE4LIFE / BMC5:46:314:05 14.72194ma2NIVELLES
Vos photos grâce à Sportograf471.1710KALBUSCH Jean-Marc49BELSAMSTAGS-SPORTL5:46:404:05 14.71195ma2ROBERTVILLE
Vos photos grâce à Sportograf472.2062VAN DIJCK Paul35NLDELECTRIC EELS5:47:184:06 14.68145ma1VENLO
Vos photos grâce à Sportograf473.2267VAN DEN LANGENBERGH Bart35BEL5:47:334:06 14.67146ma1RIJKEVORSEL
Vos photos grâce à Sportograf474.2245VAN DEN BOGERD Kris38BEL5:47:344:06 14.67147ma1RIJKEVORSEL
Vos photos grâce à Sportograf475.2306NOUWEN Jan47BEL-5:47:434:06 14.67196ma2SILLY
Vos photos grâce à Sportograf476.1909DEFECHEREUX Olivier38BEL5:49:444:07 14.58148ma1WAIMES
Vos photos grâce à Sportograf477.2461MARSCHANG Arno31BELWMTB5:49:544:07 14.58149ma1BEVEREN-WAAS
Vos photos grâce à Sportograf478.1409100 534 237 42FMACHIELSEN Bieke34BELPASSION CYCLES 5:50:074:08 14.577damDINANT
Vos photos grâce à Sportograf479.2390DELLAFAILLE Wim48BEL5:50:074:08 14.57197ma2SCHOTEN
Vos photos grâce à Sportograf480.134992140443NEF Cedric43BELBCH5:50:224:08 14.56198ma2HAVINNES
Vos photos grâce à Sportograf481.423HAESENDORF Glenn25BEL5:50:324:08 14.5556eli
Vos photos grâce à Sportograf482.1718LEUSINK Erik Pieter32NLD5:50:424:08 14.54150ma1GENEMUIDEN
Vos photos grâce à Sportograf483.1932DELAERE Reinoud42BELAMB THEUX5:51:414:09 14.50199ma2THEUX
Vos photos grâce à Sportograf484.1350410110DEMIERBE Marc55BELMALMEDY MOUNTAI5:51:564:09 14.4959ma3MALMEDY
Vos photos grâce à Sportograf485.418TIMMERMANS David42BEL5:52:044:09 14.49200ma2
Vos photos grâce à Sportograf486.425BECKERS Steve32BELBLUE RIDERS5:52:164:09 14.48151ma1
Vos photos grâce à Sportograf487.424VANDECAUTER Gert42BEL5:52:174:09 14.48201ma2
Vos photos grâce à Sportograf488.1825SUIJKERLAND Koen36NLDLEFFUH RIJDERS5:52:184:09 14.48152ma1RIJSWIJK
Vos photos grâce à Sportograf489.1624SOERS Danny39BELJOVEN5:53:554:10 14.41153ma1
Vos photos grâce à Sportograf490.1772DEURSEN VAN Riny51NLD5:54:364:11 14.3860ma3EINDHOVEN
Vos photos grâce à Sportograf491.128708093580132HENOCQUE Jean Francois47FRATEAM MAD BIKE5:54:494:11 14.37202ma2SELINCOURT
Vos photos grâce à Sportograf492.353SCHMOIT Jean-Marc46BEL7 BOSSES5:55:084:11 14.36203ma2
Vos photos grâce à Sportograf493.1959MARIËN Stijn26BEL5:55:164:11 14.3657eliDESSEL
Vos photos grâce à Sportograf494.2495WOLKENFELT Bart37NLDWV EDE5:55:184:11 14.35154ma1DK ARNHEM
Vos photos grâce à Sportograf495.376VANOPSTAL John39BEL5:55:254:11 14.35155ma1HERENTALS
Vos photos grâce à Sportograf496.375SMETS Thomas37BEL5:55:284:11 14.35156ma1
Vos photos grâce à Sportograf497.1834VAN GORP Bart55BELMTB WITTENBERG5:56:004:12 14.3361ma3HERENTALS
Vos photos grâce à Sportograf498.1835DRYBOOMS Jan48BEL5:56:024:12 14.33204ma2HERENTALS
Vos photos grâce à Sportograf499.410BUDDINGH 56NLD5:56:194:12 14.3162ma3
Vos photos grâce à Sportograf500.415JAMBROERS Ron56NLD5:56:204:12 14.3163ma3
DNF: abandon; DSQ: disqualifié; Vitesse en km/h
Page: [1] 2